1/3 a 11/3 - Refrescada y luego otra vez calor N, húmedo centro. Lluvias y tormentas C y N.

Avatar de Usuario
Diecha
Mensajes: 20023
Registrado: Jue Ago 25, 2011 9:31 pm
Ubicación: Lomas de Zamora

Re: 1/3 a 10/3 - Refrescada y luego otra vez calor N, húmedo centro (tormentas), ventoso Pat [arco destructivo C/N PBA 7

Mensaje por Diecha »

- Reconquista 17:15 hs: SATR 092015Z 34009KT 3000 TSRA BKN005 OVC045 FEW050CB 30/25 Q1008

Imagen
Imagen
Imagen

- Río Cuarto 17:25 hs: SAOC 092025Z 18012KT 8000 VCSH FEW012 SCT020 BKN030 20/16 Q1013

Imagen
Avatar de Usuario
maxi_rosario_eche21
Mensajes: 9704
Registrado: Mié Sep 23, 2009 1:55 am
Ubicación: Rosario, Argentina

Re: 1/3 a 10/3 - Refrescada y luego otra vez calor N, húmedo centro (tormentas), ventoso Pat [arco destructivo C/N PBA 7

Mensaje por maxi_rosario_eche21 »

Hermoso dia de otoño en Rosario. Llueve desde madrugada con viento del este, fresco y truenos positivos.. ahora se largo mas fuerte de nuevo. Creo que es lo último
dariusg
Mensajes: 3501
Registrado: Mar Feb 02, 2010 12:45 pm
Ubicación: Paraná, Entre Ríos

Re: 1/3 a 10/3 - Refrescada y luego otra vez calor N, húmedo centro (tormentas), ventoso Pat [arco destructivo C/N PBA 7

Mensaje por dariusg »

30 mm sobre Parana y continua
Avatar de Usuario
Diecha
Mensajes: 20023
Registrado: Jue Ago 25, 2011 9:31 pm
Ubicación: Lomas de Zamora

Re: 1/3 a 10/3 - Refrescada y luego otra vez calor N, húmedo centro (tormentas), ventoso Pat [arco destructivo C/N PBA 7

Mensaje por Diecha »

- Iguazú 19 hs: SARI 092200Z 14004KT 9999 TS FEW030CB BKN200 31/22 Q1009

Imagen
Imagen
Imagen
Avatar de Usuario
Diecha
Mensajes: 20023
Registrado: Jue Ago 25, 2011 9:31 pm
Ubicación: Lomas de Zamora

Re: 1/3 a 10/3 - Refrescada y luego otra vez calor N, húmedo centro (tormentas), ventoso Pat [arco destructivo C/N PBA 7

Mensaje por Diecha »

Avatar de Usuario
Ernest
Mensajes: 16132
Registrado: Vie Jul 17, 2009 10:54 pm
Ubicación: Balvanera, CABA

Re: 1/3 a 10/3 - Refrescada y luego otra vez calor N, húmedo centro (tormentas), ventoso Pat [arco destructivo C/N PBA 7

Mensaje por Ernest »

T 20,0 - Th 17,0 - Td 15,0 - HR 73 % en mi ventana.
De a ratos brillan las estrellas pero todavía persiste nubosidad.
Did you want to talk about the weather, or were you just making chitchat?

Twitter: @ErnestoAtmoII
Avatar de Usuario
Diecha
Mensajes: 20023
Registrado: Jue Ago 25, 2011 9:31 pm
Ubicación: Lomas de Zamora

Re: 1/3 a 10/3 - Refrescada y luego otra vez calor N, húmedo centro (tormentas), ventoso Pat [arco destructivo C/N PBA 7

Mensaje por Diecha »

- Iguazú 21 hs: SARI 100000Z 09010KT 7000 -TSRA SCT025 OVC040 FEW050CB 22/22 Q1012

Imagen
Imagen

- Paso de los Libres 21 hs: SARL 100000Z 25026KT 3000 TSRA BKN015 OVC035 FEW045CB 25/24 Q1012
- Reconquista 21 hs: SATR 100000Z 16007KT 8000 -TS OVC040 FEW045CB 24/23 Q1008

Imagen
Avatar de Usuario
Ale de Castelar
Mensajes: 32509
Registrado: Sab Mar 03, 2012 12:25 pm
Ubicación: Caballito

Re: 1/3 a 10/3 - Refrescada y luego otra vez calor N, húmedo centro (tormentas), ventoso Pat [arco destructivo C/N PBA 7

Mensaje por Ale de Castelar »

Resistencia

Avatar de Usuario
Diecha
Mensajes: 20023
Registrado: Jue Ago 25, 2011 9:31 pm
Ubicación: Lomas de Zamora

Re: 1/3 a 10/3 - Refrescada y luego otra vez calor N, húmedo centro (tormentas), ventoso Pat [arco destructivo C/N PBA 7

Mensaje por Diecha »



Imagen
Avatar de Usuario
Ale de Castelar
Mensajes: 32509
Registrado: Sab Mar 03, 2012 12:25 pm
Ubicación: Caballito

Re: 1/3 a 10/3 - Refrescada y luego otra vez calor N, húmedo centro (tormentas), ventoso Pat [arco destructivo C/N PBA 7

Mensaje por Ale de Castelar »

Corrientes